createdAt,value
2018-03-14T00:01:30.458Z,9.93
2018-03-14T00:03:59.282Z,11.00
2018-03-14T00:06:28.103Z,11.05
2018-03-14T00:08:56.926Z,11.18
2018-03-14T00:11:25.749Z,10.88
2018-03-14T00:13:54.573Z,10.86
2018-03-14T00:16:23.199Z,11.02
2018-03-14T00:18:51.933Z,11.08
2018-03-14T00:21:20.635Z,11.22
2018-03-14T00:23:49.462Z,11.27
2018-03-14T00:26:18.197Z,11.35
2018-03-14T00:28:46.922Z,11.37
2018-03-14T00:31:15.723Z,11.33
2018-03-14T00:33:44.545Z,11.30
2018-03-14T00:36:13.280Z,11.03
2018-03-14T00:38:41.878Z,11.15
2018-03-14T00:41:10.554Z,11.13
2018-03-14T00:43:40.235Z,11.01
2018-03-14T00:46:09.059Z,10.93
2018-03-14T00:48:37.794Z,11.00
2018-03-14T00:51:06.502Z,11.01
2018-03-14T00:53:35.224Z,11.05
2018-03-14T00:56:03.961Z,11.01
2018-03-14T00:58:32.640Z,11.01
2018-03-14T01:01:01.392Z,10.36
2018-03-14T01:03:30.211Z,10.27
2018-03-14T01:05:58.933Z,10.50
2018-03-14T01:08:27.531Z,10.71
2018-03-14T01:10:56.178Z,10.83
2018-03-14T01:13:24.802Z,10.92
2018-03-14T01:15:53.622Z,11.00
2018-03-14T01:18:22.342Z,11.05
2018-03-14T01:20:51.164Z,11.10
2018-03-14T01:23:19.901Z,11.03
2018-03-14T01:25:48.708Z,11.19
2018-03-14T01:28:17.549Z,11.23
2018-03-14T01:30:46.354Z,11.24
2018-03-14T01:33:15.227Z,11.26
2018-03-14T01:35:43.922Z,11.22
2018-03-14T01:38:12.539Z,11.26
2018-03-14T01:40:41.259Z,11.29
2018-03-14T01:43:09.895Z,11.31
2018-03-14T01:45:38.547Z,11.32
2018-03-14T01:48:07.940Z,11.34
2018-03-14T01:50:36.631Z,11.36
2018-03-14T01:53:17.092Z,11.36
2018-03-14T01:55:45.814Z,11.34
2018-03-14T01:58:14.437Z,11.34
2018-03-14T02:00:43.259Z,11.22
2018-03-14T02:03:11.996Z,11.34
2018-03-14T02:05:40.746Z,11.37
2018-03-14T02:08:09.443Z,11.40
2018-03-14T02:10:38.346Z,11.41
2018-03-14T02:13:06.981Z,11.43
2018-03-14T02:15:35.893Z,11.36
2018-03-14T02:18:04.714Z,11.43
2018-03-14T02:20:33.403Z,11.54
2018-03-14T02:23:02.156Z,11.59
2018-03-14T02:25:30.861Z,11.63
2018-03-14T02:27:59.619Z,11.57
2018-03-14T02:30:28.242Z,11.55
2018-03-14T02:32:57.014Z,11.51
2018-03-14T02:35:25.679Z,11.49
2018-03-14T02:37:54.357Z,11.49
2018-03-14T02:40:23.817Z,11.43
2018-03-14T02:42:52.553Z,11.46
2018-03-14T02:45:21.168Z,11.48
2018-03-14T02:47:49.781Z,11.43
2018-03-14T02:50:18.402Z,11.45
2018-03-14T02:52:47.221Z,11.48
2018-03-14T02:55:15.831Z,11.52
2018-03-14T02:57:44.463Z,11.55
2018-03-14T03:00:13.195Z,11.57
2018-03-14T03:02:41.933Z,11.57
2018-03-14T03:05:10.530Z,11.60
2018-03-14T03:07:39.107Z,11.58
2018-03-14T03:10:07.772Z,10.91
2018-03-14T03:12:36.493Z,11.17
2018-03-14T03:15:05.316Z,11.28
2018-03-14T03:17:33.945Z,11.27
2018-03-14T03:20:02.538Z,11.21
2018-03-14T03:22:31.188Z,11.27
2018-03-14T03:25:00.004Z,11.27
2018-03-14T03:27:28.571Z,11.25
2018-03-14T03:29:57.347Z,11.26
2018-03-14T03:32:26.068Z,11.25
2018-03-14T03:34:54.793Z,11.27
2018-03-14T03:37:23.398Z,11.32
2018-03-14T03:39:52.749Z,11.37
2018-03-14T03:42:21.530Z,11.42
2018-03-14T03:44:50.190Z,11.44
2018-03-14T03:47:19.025Z,11.50
2018-03-14T03:49:47.624Z,11.54
2018-03-14T03:52:16.175Z,11.58
2018-03-14T03:54:44.946Z,11.58
2018-03-14T03:57:13.688Z,11.60
2018-03-14T03:59:42.412Z,11.65
2018-03-14T04:02:11.056Z,11.63
2018-03-14T04:04:39.753Z,11.63
2018-03-14T04:07:08.475Z,11.57
2018-03-14T04:09:37.140Z,11.58
2018-03-14T04:12:05.822Z,11.62
2018-03-14T04:14:34.584Z,11.66
2018-03-14T04:17:03.364Z,11.72
2018-03-14T04:19:32.100Z,11.74
2018-03-14T04:22:00.654Z,11.71
2018-03-14T04:24:29.529Z,11.74
2018-03-14T04:26:58.127Z,11.40
2018-03-14T04:29:26.771Z,11.49
2018-03-14T04:31:55.361Z,11.53
2018-03-14T04:34:23.964Z,11.59
2018-03-14T04:36:52.739Z,11.37
2018-03-14T04:39:21.304Z,11.28
2018-03-14T04:41:51.417Z,11.11
2018-03-14T04:44:20.209Z,11.20
2018-03-14T04:46:48.774Z,11.25
2018-03-14T04:49:17.552Z,11.31
2018-03-14T04:51:46.216Z,11.40
2018-03-14T04:54:14.912Z,11.35
2018-03-14T04:56:43.504Z,11.33
2018-03-14T04:59:12.125Z,11.12
2018-03-14T05:01:40.781Z,10.47
2018-03-14T05:04:09.580Z,10.60
2018-03-14T05:06:38.157Z,10.53
2018-03-14T05:09:06.825Z,10.54
2018-03-14T05:11:35.387Z,10.63
2018-03-14T05:14:03.991Z,10.48
2018-03-14T05:16:32.666Z,10.42
2018-03-14T05:19:01.238Z,10.32
2018-03-14T05:21:29.857Z,10.38
2018-03-14T05:23:58.465Z,10.35
2018-03-14T05:26:27.274Z,10.35
2018-03-14T05:28:55.908Z,10.42
2018-03-14T05:31:24.615Z,10.11
2018-03-14T05:33:54.080Z,10.20
2018-03-14T05:36:22.662Z,10.38
2018-03-14T05:38:51.296Z,10.50
2018-03-14T05:41:20.021Z,10.61
2018-03-14T05:43:48.598Z,10.78
2018-03-14T05:46:17.204Z,10.45
2018-03-14T05:48:45.770Z,10.63
2018-03-14T05:51:14.350Z,10.17
2018-03-14T05:53:42.910Z,9.87
2018-03-14T05:56:11.569Z,10.27
2018-03-14T05:58:40.358Z,10.34
2018-03-14T06:01:09.191Z,10.51
2018-03-14T06:03:37.904Z,10.85
2018-03-14T06:06:06.523Z,11.11
2018-03-14T06:08:35.072Z,11.40
2018-03-14T06:11:03.690Z,11.36
2018-03-14T06:13:32.396Z,12.13
2018-03-14T06:16:01.315Z,13.25
2018-03-14T06:18:29.956Z,13.68
2018-03-14T06:20:59.157Z,14.41
2018-03-14T06:23:27.768Z,15.08
2018-03-14T06:25:56.410Z,14.98
2018-03-14T06:28:24.975Z,13.87
2018-03-14T06:30:53.743Z,13.95
2018-03-14T06:33:22.345Z,14.00
2018-03-14T06:35:50.986Z,13.75
2018-03-14T06:38:19.608Z,13.57
2018-03-14T06:40:48.234Z,13.78
2018-03-14T06:43:16.844Z,13.50
2018-03-14T06:45:45.485Z,13.61
2018-03-14T06:48:14.028Z,13.71
2018-03-14T06:50:42.816Z,13.79
2018-03-14T06:53:11.408Z,13.68
2018-03-14T06:55:40.069Z,13.90
2018-03-14T06:58:09.685Z,13.63
2018-03-14T07:00:50.750Z,13.76
2018-03-14T07:03:31.113Z,13.44
2018-03-14T07:06:06.660Z,13.33
2018-03-14T07:08:35.480Z,13.44
2018-03-14T07:11:04.121Z,13.60
2018-03-14T07:13:32.748Z,13.39
2018-03-14T07:16:01.320Z,13.49
2018-03-14T07:18:29.926Z,13.70
2018-03-14T07:20:58.583Z,13.98
2018-03-14T07:23:27.319Z,14.08
2018-03-14T07:25:55.944Z,14.03
2018-03-14T07:28:24.507Z,14.00
2018-03-14T07:30:53.175Z,14.25
2018-03-14T07:33:23.099Z,14.62
2018-03-14T07:35:51.707Z,15.03
2018-03-14T07:38:20.350Z,14.90
2018-03-14T07:40:49.065Z,15.30
2018-03-14T07:43:17.668Z,15.34
2018-03-14T07:45:46.309Z,16.04
2018-03-14T07:48:15.111Z,16.52
2018-03-14T07:50:43.703Z,17.69
2018-03-14T07:53:13.331Z,18.98
2018-03-14T07:55:42.623Z,19.64
2018-03-14T07:58:11.224Z,19.70
2018-03-14T08:00:39.856Z,19.91
2018-03-14T08:03:08.666Z,20.20
2018-03-14T08:05:37.846Z,20.07
2018-03-14T08:08:06.811Z,19.88
2018-03-14T08:10:35.449Z,19.68
2018-03-14T08:13:04.050Z,19.39
2018-03-14T08:15:32.644Z,19.32
2018-03-14T08:18:01.309Z,19.62
2018-03-14T08:20:30.028Z,20.03
2018-03-14T08:23:01.805Z,18.84
2018-03-14T08:25:30.515Z,20.37
2018-03-14T08:27:59.134Z,20.51
2018-03-14T08:30:27.831Z,20.20
2018-03-14T08:32:56.457Z,19.91
2018-03-14T08:35:25.072Z,19.81
2018-03-14T08:37:53.707Z,19.88
2018-03-14T08:40:22.410Z,19.07
2018-03-14T08:42:51.782Z,18.78
2018-03-14T08:45:20.550Z,18.95
2018-03-14T08:47:49.121Z,19.00
2018-03-14T08:50:17.705Z,18.95
2018-03-14T08:52:46.378Z,18.87
2018-03-14T08:55:14.966Z,18.95
2018-03-14T08:57:43.622Z,18.69
2018-03-14T09:00:12.192Z,18.73
2018-03-14T09:02:40.804Z,18.22
2018-03-14T09:05:09.520Z,18.10
2018-03-14T09:07:38.152Z,18.34
2018-03-14T09:10:06.782Z,18.35
2018-03-14T09:12:35.536Z,19.00
2018-03-14T09:15:04.216Z,19.47
2018-03-14T09:17:32.827Z,19.72
2018-03-14T09:20:01.405Z,19.47
2018-03-14T09:22:30.079Z,19.04
2018-03-14T09:24:58.670Z,19.18
2018-03-14T09:27:27.343Z,19.48
2018-03-14T09:29:55.992Z,19.70
2018-03-14T09:32:24.659Z,19.90
2018-03-14T09:34:53.485Z,20.11
2018-03-14T09:37:22.101Z,19.38
2018-03-14T09:39:50.824Z,19.47
2018-03-14T09:42:19.548Z,19.51
2018-03-14T09:44:48.172Z,19.49
2018-03-14T09:47:24.797Z,19.05
2018-03-14T09:49:59.514Z,18.60
2018-03-14T09:52:28.239Z,18.96
2018-03-14T09:54:56.935Z,19.22
2018-03-14T09:57:28.007Z,19.44
2018-03-14T09:59:57.458Z,18.62
2018-03-14T10:02:27.453Z,18.70
2018-03-14T10:04:56.452Z,18.76
2018-03-14T10:07:25.696Z,19.21
2018-03-14T10:09:54.355Z,18.98
2018-03-14T10:12:23.078Z,19.20
2018-03-14T10:14:51.801Z,19.32
2018-03-14T10:17:20.519Z,18.92
2018-03-14T10:19:49.441Z,19.60
2018-03-14T10:22:18.052Z,19.38
2018-03-14T10:24:47.298Z,19.64
2018-03-14T10:27:16.147Z,19.93
2018-03-14T10:29:44.905Z,20.27
2018-03-14T10:32:13.552Z,20.62
2018-03-14T10:34:42.876Z,21.25
2018-03-14T10:37:13.406Z,21.14
2018-03-14T10:39:42.045Z,19.60
2018-03-14T10:42:11.525Z,18.78
2018-03-14T10:44:40.248Z,19.54
2018-03-14T10:47:09.076Z,19.53
2018-03-14T10:49:37.703Z,19.96
2018-03-14T10:52:06.359Z,19.90
2018-03-14T10:54:35.707Z,20.12
2018-03-14T10:57:04.345Z,19.66
2018-03-14T10:59:33.830Z,19.85
2018-03-14T11:02:11.270Z,19.74
2018-03-14T11:04:43.271Z,18.88
2018-03-14T11:07:11.932Z,18.56
2018-03-14T11:09:40.596Z,18.30
2018-03-14T11:12:09.294Z,18.02
2018-03-14T11:14:37.950Z,18.27
2018-03-14T11:17:06.652Z,18.38
2018-03-14T11:19:35.752Z,18.47
2018-03-14T11:22:07.499Z,18.33
2018-03-14T11:24:36.168Z,17.98
2018-03-14T11:27:04.737Z,17.76
2018-03-14T11:29:33.650Z,17.48
2018-03-14T11:32:02.364Z,17.97
2018-03-14T11:34:31.043Z,18.43
2018-03-14T11:36:59.720Z,18.24
2018-03-14T11:39:28.330Z,18.19
2018-03-14T11:41:56.972Z,17.64
2018-03-14T11:44:25.557Z,17.37
2018-03-14T11:46:54.396Z,17.07
2018-03-14T11:49:23.144Z,17.66
2018-03-14T11:51:51.875Z,18.15
2018-03-14T11:54:20.491Z,18.53
2018-03-14T11:56:49.104Z,18.43
2018-03-14T11:59:18.106Z,18.41
2018-03-14T12:01:46.722Z,17.67
2018-03-14T12:04:16.462Z,17.42
2018-03-14T12:06:45.086Z,17.25
2018-03-14T12:09:13.830Z,17.38
2018-03-14T12:11:42.476Z,17.27
2018-03-14T12:14:11.067Z,17.27
2018-03-14T12:16:39.719Z,16.90
2018-03-14T12:19:08.347Z,16.82
2018-03-14T12:21:37.458Z,16.54
2018-03-14T12:24:06.143Z,16.46
2018-03-14T12:26:35.853Z,16.93
2018-03-14T12:29:05.632Z,17.08
2018-03-14T12:31:34.299Z,17.16
2018-03-14T12:34:03.434Z,17.08
2018-03-14T12:36:32.055Z,17.16
2018-03-14T12:39:01.302Z,17.23
2018-03-14T12:41:30.101Z,17.21
2018-03-14T12:43:59.892Z,17.31
2018-03-14T12:46:28.497Z,17.41
2018-03-14T12:48:57.262Z,17.42
2018-03-14T12:51:25.815Z,17.45
2018-03-14T12:53:54.609Z,17.46
2018-03-14T12:56:23.209Z,17.62
2018-03-14T12:58:51.962Z,17.82
2018-03-14T13:01:21.495Z,17.69
2018-03-14T13:03:50.085Z,17.70
2018-03-14T13:06:18.818Z,17.33
2018-03-14T13:08:47.606Z,16.96
2018-03-14T13:11:16.226Z,17.00
2018-03-14T13:13:45.581Z,17.13
2018-03-14T13:16:14.144Z,16.98
2018-03-14T13:18:43.254Z,17.48
2018-03-14T13:21:18.200Z,17.56
2018-03-14T13:23:47.720Z,17.80
2018-03-14T13:26:16.541Z,17.73
2018-03-14T13:28:45.703Z,17.69
2018-03-14T13:31:15.534Z,17.79
2018-03-14T13:33:46.218Z,18.01
2018-03-14T13:36:17.159Z,18.03
2018-03-14T13:38:47.207Z,17.86
2018-03-14T13:41:19.492Z,17.73
2018-03-14T13:43:48.230Z,17.68
2018-03-14T13:46:24.577Z,17.78
2018-03-14T13:48:53.625Z,17.83
2018-03-14T13:51:22.349Z,18.16
2018-03-14T13:56:31.852Z,18.61
2018-03-14T13:59:01.309Z,18.72
2018-03-14T14:01:46.695Z,18.70
2018-03-14T14:04:15.425Z,18.71
2018-03-14T14:06:48.915Z,18.74
2018-03-14T14:09:32.093Z,18.63
2018-03-14T14:14:34.572Z,17.93
2018-03-14T14:17:03.362Z,18.03
2018-03-14T14:19:31.964Z,18.18
2018-03-14T14:22:00.504Z,18.38
2018-03-14T14:24:29.276Z,18.49
2018-03-14T14:26:58.302Z,18.71
2018-03-14T14:32:00.263Z,18.35
2018-03-14T14:34:28.876Z,18.61
2018-03-14T14:36:58.606Z,18.79
2018-03-14T14:39:27.244Z,19.13
2018-03-14T14:41:56.863Z,19.49
2018-03-14T14:44:25.571Z,19.75
2018-03-14T14:46:54.400Z,19.81
2018-03-14T14:49:23.116Z,20.04
2018-03-14T14:51:51.960Z,20.21
2018-03-14T14:54:22.066Z,20.33
2018-03-14T14:56:50.789Z,20.39
2018-03-14T14:59:19.417Z,20.37
2018-03-14T15:01:48.045Z,20.43
2018-03-14T15:04:16.890Z,20.37
2018-03-14T15:06:45.695Z,20.00
2018-03-14T15:09:14.294Z,20.03
2018-03-14T15:11:42.927Z,20.05
2018-03-14T15:14:11.548Z,20.03
2018-03-14T15:16:40.163Z,19.74
2018-03-14T15:19:08.883Z,19.54
2018-03-14T15:21:37.605Z,18.90
2018-03-14T15:24:06.246Z,18.57
2018-03-14T15:26:35.652Z,18.48
2018-03-14T15:29:04.520Z,18.48
2018-03-14T15:31:34.296Z,18.55
2018-03-14T15:34:03.010Z,18.54
2018-03-14T15:36:40.365Z,18.46
2018-03-14T15:39:09.195Z,18.18
2018-03-14T15:41:37.830Z,18.22
2018-03-14T15:44:06.433Z,18.14
2018-03-14T15:46:34.974Z,18.19
2018-03-14T15:49:05.352Z,18.22
2018-03-14T15:51:34.243Z,18.34
2018-03-14T15:54:02.801Z,18.45
2018-03-14T16:29:02.298Z,14.41
2018-03-14T16:31:30.923Z,14.10
2018-03-14T16:33:59.742Z,14.29
2018-03-14T16:36:28.374Z,13.99
2018-03-14T16:38:57.152Z,13.85
2018-03-14T16:41:25.807Z,13.75
2018-03-14T16:43:54.429Z,13.50
2018-03-14T16:46:23.249Z,13.53
2018-03-14T16:48:52.575Z,13.47
2018-03-14T16:51:21.301Z,13.33
2018-03-14T16:53:50.019Z,13.38
2018-03-14T16:56:18.653Z,13.29
2018-03-14T16:58:47.247Z,13.20
2018-03-14T17:01:15.982Z,13.21
2018-03-14T17:03:44.665Z,13.15
2018-03-14T17:06:13.448Z,13.18
2018-03-14T17:08:42.151Z,13.03
2018-03-14T17:11:10.872Z,13.13
2018-03-14T17:13:39.596Z,13.01
2018-03-14T17:16:08.921Z,13.05
2018-03-14T17:18:37.711Z,12.99
2018-03-14T17:21:06.353Z,12.90
2018-03-14T17:23:34.964Z,12.84
2018-03-14T17:26:03.709Z,12.77
2018-03-14T17:28:32.829Z,12.83
2018-03-14T17:31:01.475Z,12.79
2018-03-14T17:33:30.182Z,12.66
2018-03-14T17:35:58.898Z,12.51
2018-03-14T17:38:27.600Z,12.47
2018-03-14T17:40:56.261Z,12.49
2018-03-14T17:43:24.958Z,12.57
2018-03-14T17:45:53.542Z,12.60
2018-03-14T17:48:22.200Z,12.74
2018-03-14T17:50:50.921Z,12.85
2018-03-14T17:53:19.479Z,12.84
2018-03-14T17:55:48.091Z,12.94
2018-03-14T17:58:16.862Z,12.98
2018-03-14T18:00:46.312Z,13.06
2018-03-14T18:03:14.932Z,13.09
2018-03-14T18:05:43.734Z,13.06
2018-03-14T18:08:12.404Z,13.01
2018-03-14T18:10:41.114Z,12.92
2018-03-14T18:13:09.724Z,13.01
2018-03-14T18:15:38.451Z,12.96
2018-03-14T18:18:07.167Z,12.98
2018-03-14T18:20:35.803Z,12.94
2018-03-14T18:23:04.530Z,13.02
2018-03-14T18:25:33.228Z,13.15
2018-03-14T18:28:01.960Z,13.12
2018-03-14T18:30:30.574Z,13.04
2018-03-14T18:32:59.807Z,12.96
2018-03-14T18:35:28.429Z,13.07
2018-03-14T18:37:56.976Z,12.91
2018-03-14T18:40:25.742Z,12.80
2018-03-14T18:42:54.383Z,12.81
2018-03-14T18:45:22.954Z,12.52
2018-03-14T18:47:51.643Z,12.67
2018-03-14T18:50:20.347Z,12.37
2018-03-14T18:52:48.986Z,12.15
2018-03-14T18:55:17.646Z,12.05
2018-03-14T18:57:46.230Z,12.07
2018-03-14T19:00:14.938Z,12.06
2018-03-14T19:02:43.656Z,12.10
2018-03-14T19:05:12.376Z,12.18
2018-03-14T19:07:41.004Z,11.97
2018-03-14T19:10:09.889Z,12.08
2018-03-14T19:12:38.562Z,12.25
2018-03-14T19:15:07.283Z,12.40
2018-03-14T19:17:35.977Z,12.45
2018-03-14T19:20:04.560Z,12.30
2018-03-14T19:22:33.330Z,12.55
2018-03-14T19:25:02.058Z,12.58
2018-03-14T19:27:30.774Z,12.59
2018-03-14T19:29:59.497Z,12.68
2018-03-14T19:32:28.125Z,12.53
2018-03-14T19:34:56.695Z,12.67
2018-03-14T19:37:25.306Z,12.70
2018-03-14T19:39:53.894Z,12.72
2018-03-14T19:42:22.472Z,12.80
2018-03-14T19:44:51.129Z,12.85
2018-03-14T19:47:19.850Z,12.92
2018-03-14T19:49:48.417Z,12.84
2018-03-14T19:52:17.290Z,12.89
2018-03-14T19:54:46.012Z,12.77
2018-03-14T19:57:14.642Z,12.52
2018-03-14T19:59:43.354Z,11.96
2018-03-14T20:02:12.085Z,11.43
2018-03-14T20:04:40.787Z,11.06
2018-03-14T20:07:09.391Z,10.56
2018-03-14T20:09:37.940Z,10.21
2018-03-14T20:12:06.524Z,9.89
2018-03-14T20:14:35.196Z,9.54
2018-03-14T20:17:03.867Z,9.39
2018-03-14T20:19:32.627Z,9.37
2018-03-14T20:22:01.255Z,9.33
2018-03-14T20:24:29.860Z,9.32
2018-03-14T20:26:58.559Z,9.30
2018-03-14T20:29:27.101Z,9.31
2018-03-14T20:31:55.990Z,9.39
2018-03-14T20:34:24.537Z,9.47
2018-03-14T20:36:53.194Z,9.47
2018-03-14T20:39:21.762Z,9.60
2018-03-14T20:41:50.312Z,9.58
2018-03-14T20:44:18.938Z,9.66
2018-03-14T20:46:47.566Z,9.72
2018-03-14T20:49:16.897Z,9.68
2018-03-14T20:51:46.114Z,9.67
2018-03-14T20:54:14.701Z,9.71
2018-03-14T20:56:43.249Z,9.64
2018-03-14T20:59:11.831Z,9.63
2018-03-14T21:01:40.412Z,9.74
2018-03-14T21:04:09.003Z,9.83
2018-03-14T21:06:37.595Z,9.83
2018-03-14T21:09:06.731Z,9.98
2018-03-14T21:11:35.335Z,9.84
2018-03-14T21:14:03.893Z,9.93
2018-03-14T21:16:32.634Z,9.87
2018-03-14T21:19:01.214Z,9.84
2018-03-14T21:21:29.819Z,9.84
2018-03-14T21:23:58.392Z,9.89
2018-03-14T21:26:26.990Z,9.91
2018-03-14T21:28:55.624Z,10.01
2018-03-14T21:31:24.286Z,10.09
2018-03-14T21:33:52.815Z,10.03
2018-03-14T21:36:21.503Z,10.01
2018-03-14T21:38:50.089Z,9.90
2018-03-14T21:41:19.856Z,9.92
2018-03-14T21:43:48.491Z,9.85
2018-03-14T21:46:17.089Z,9.85
2018-03-14T21:48:45.735Z,9.88
2018-03-14T21:51:14.381Z,9.85
2018-03-14T21:53:42.954Z,9.87
2018-03-14T21:56:11.680Z,9.87
2018-03-14T21:58:40.400Z,9.88
2018-03-14T22:01:09.070Z,9.88
2018-03-14T22:03:37.844Z,9.88
2018-03-14T22:06:06.571Z,9.84
2018-03-14T22:08:35.080Z,9.70
2018-03-14T22:11:03.675Z,9.71
2018-03-14T22:13:32.904Z,9.63
2018-03-14T22:16:01.654Z,9.51
2018-03-14T22:18:30.269Z,9.34
2018-03-14T22:20:58.913Z,9.27
2018-03-14T22:23:27.448Z,9.25
2018-03-14T22:25:56.027Z,9.25
2018-03-14T22:28:24.570Z,9.24
2018-03-14T22:30:53.147Z,9.22
2018-03-14T22:33:21.690Z,9.14
2018-03-14T22:35:50.428Z,9.15
2018-03-14T22:38:19.000Z,9.03
2018-03-14T22:40:47.565Z,9.04
2018-03-14T22:43:16.150Z,9.13
2018-03-14T22:45:44.766Z,9.10
2018-03-14T22:48:13.532Z,9.13
2018-03-14T22:50:42.275Z,9.15
2018-03-14T22:53:11.081Z,9.19
2018-03-14T22:55:39.623Z,9.25
2018-03-14T22:58:08.220Z,9.27
2018-03-14T23:00:37.558Z,9.29
2018-03-14T23:03:06.266Z,9.33
2018-03-14T23:05:34.890Z,9.27
2018-03-14T23:08:03.476Z,9.25
2018-03-14T23:10:32.211Z,9.04
2018-03-14T23:13:00.757Z,8.80
2018-03-14T23:15:31.388Z,8.82
2018-03-14T23:18:00.106Z,8.99
2018-03-14T23:20:28.712Z,8.90
2018-03-14T23:22:57.447Z,8.83
2018-03-14T23:25:26.050Z,8.80
2018-03-14T23:27:54.685Z,8.87
2018-03-14T23:30:23.421Z,8.95
2018-03-14T23:32:52.039Z,9.02
2018-03-14T23:35:20.882Z,9.03
2018-03-14T23:37:49.440Z,8.33
2018-03-14T23:40:18.207Z,9.18
2018-03-14T23:42:47.557Z,9.35
2018-03-14T23:45:16.159Z,9.28
2018-03-14T23:47:44.868Z,9.25
2018-03-14T23:50:13.462Z,9.13
2018-03-14T23:52:42.109Z,9.03
2018-03-14T23:55:10.831Z,9.03
2018-03-14T23:57:39.431Z,9.01
